createdAt,value
2023-04-25T00:01:43.189Z,9.60
2023-04-25T00:04:49.756Z,9.60
2023-04-25T00:07:53.759Z,9.60
2023-04-25T00:11:01.750Z,9.50
2023-04-25T00:14:05.513Z,9.50
2023-04-25T00:17:11.788Z,9.50
2023-04-25T00:20:15.725Z,9.40
2023-04-25T00:23:21.489Z,9.40
2023-04-25T00:26:27.139Z,9.40
2023-04-25T00:29:32.844Z,9.40
2023-04-25T00:32:36.668Z,9.40
2023-04-25T00:35:42.448Z,9.40
2023-04-25T00:38:46.195Z,9.40
2023-04-25T00:41:55.164Z,9.40
2023-04-25T00:44:59.494Z,9.30
2023-04-25T00:48:06.839Z,9.30
2023-04-25T00:51:11.855Z,9.30
2023-04-25T00:54:17.958Z,9.20
2023-04-25T00:57:23.732Z,9.30
2023-04-25T01:00:29.638Z,9.20
2023-04-25T01:03:36.116Z,9.20
2023-04-25T01:06:42.402Z,9.20
2023-04-25T01:09:46.489Z,9.20
2023-04-25T01:12:54.268Z,9.20
2023-04-25T01:15:57.975Z,9.20
2023-04-25T01:19:03.673Z,9.20
2023-04-25T01:22:10.746Z,9.10
2023-04-25T01:25:16.737Z,9.10
2023-04-25T01:28:20.785Z,9.10
2023-04-25T01:31:26.534Z,9.10
2023-04-25T01:34:31.270Z,9.00
2023-04-25T01:37:39.821Z,9.00
2023-04-25T01:40:43.720Z,8.90
2023-04-25T01:43:49.749Z,8.90
2023-04-25T01:46:54.120Z,8.90
2023-04-25T01:49:59.885Z,8.80
2023-04-25T01:53:06.388Z,8.80
2023-04-25T01:56:12.461Z,8.80
2023-04-25T01:59:17.024Z,8.80
2023-04-25T02:02:39.321Z,8.80
2023-04-25T02:05:50.279Z,8.70
2023-04-25T02:08:58.406Z,8.70
2023-04-25T02:12:02.452Z,8.70
2023-04-25T02:15:14.642Z,8.60
2023-04-25T02:18:31.743Z,8.60
2023-04-25T02:21:38.036Z,8.60
2023-04-25T02:24:43.660Z,8.60
2023-04-25T02:27:49.395Z,8.60
2023-04-25T02:30:53.174Z,8.60
2023-04-25T02:33:58.917Z,8.50
2023-04-25T02:37:02.740Z,8.50
2023-04-25T02:40:11.459Z,8.50
2023-04-25T02:43:16.572Z,8.50
2023-04-25T02:46:32.200Z,8.50
2023-04-25T02:49:43.131Z,8.50
2023-04-25T02:52:49.577Z,8.40
2023-04-25T02:56:00.283Z,8.40
2023-04-25T02:59:06.326Z,8.40
2023-04-25T03:02:10.467Z,8.40
2023-04-25T03:05:17.006Z,8.30
2023-04-25T03:08:21.068Z,8.30
2023-04-25T03:11:29.546Z,8.30
2023-04-25T03:14:33.443Z,8.30
2023-04-25T03:17:39.285Z,8.30
2023-04-25T03:20:43.476Z,8.30
2023-04-25T03:23:49.603Z,8.30
2023-04-25T03:26:55.340Z,8.30
2023-04-25T03:30:01.152Z,8.30
2023-04-25T03:33:05.254Z,8.30
2023-04-25T03:36:11.164Z,8.30
2023-04-25T03:39:15.706Z,8.30
2023-04-25T03:42:27.933Z,8.30
2023-04-25T03:45:31.807Z,8.30
2023-04-25T03:48:37.652Z,8.30
2023-04-25T03:51:41.410Z,8.30
2023-04-25T03:54:47.175Z,8.40
2023-04-25T03:57:56.044Z,8.40
2023-04-25T04:01:03.558Z,8.30
2023-04-25T04:04:09.211Z,8.40
2023-04-25T04:07:15.277Z,8.40
2023-04-25T04:10:21.839Z,8.40
2023-04-25T04:13:30.314Z,8.40
2023-04-25T04:16:34.652Z,8.40
2023-04-25T04:19:40.714Z,8.40
2023-04-25T04:22:55.298Z,8.40
2023-04-25T04:26:03.306Z,8.40
2023-04-25T04:29:09.090Z,8.40
2023-04-25T04:32:20.390Z,8.40
2023-04-25T04:35:25.299Z,8.40
2023-04-25T04:38:31.529Z,8.40
2023-04-25T04:41:38.692Z,8.40
2023-04-25T04:44:56.270Z,8.40
2023-04-25T04:48:23.049Z,8.40
2023-04-25T04:51:34.664Z,8.40
2023-04-25T04:55:01.194Z,8.40
2023-04-25T04:58:12.817Z,8.40
2023-04-25T05:01:29.631Z,8.40
2023-04-25T05:04:41.721Z,8.40
2023-04-25T05:08:01.429Z,8.40
2023-04-25T05:11:24.404Z,8.30
2023-04-25T05:15:01.046Z,8.30
2023-04-25T05:18:27.336Z,8.30
2023-04-25T05:21:52.756Z,8.30
2023-04-25T05:25:14.347Z,8.30
2023-04-25T05:28:34.558Z,8.40
2023-04-25T05:31:53.761Z,8.40
2023-04-25T05:34:59.720Z,8.30
2023-04-25T05:38:09.040Z,8.40
2023-04-25T05:41:38.586Z,8.40
2023-04-25T05:45:08.192Z,8.40
2023-04-25T05:48:32.220Z,8.40
2023-04-25T05:51:46.101Z,8.40
2023-04-25T05:54:52.372Z,8.40
2023-04-25T05:57:59.377Z,8.50
2023-04-25T06:01:04.439Z,8.50
2023-04-25T06:04:10.575Z,8.50
2023-04-25T06:07:16.373Z,8.50
2023-04-25T06:10:23.058Z,8.50
2023-04-25T06:13:26.846Z,8.50
2023-04-25T06:16:33.050Z,8.60
2023-04-25T06:19:37.861Z,8.50
2023-04-25T06:22:45.728Z,8.60
2023-04-25T06:25:49.555Z,8.60
2023-04-25T06:28:55.458Z,8.50
2023-04-25T06:31:59.455Z,8.60
2023-04-25T06:35:05.797Z,8.60
2023-04-25T06:38:12.812Z,8.60
2023-04-25T06:41:20.506Z,8.70
2023-04-25T06:44:26.713Z,8.70
2023-04-25T06:47:32.824Z,8.80
2023-04-25T06:50:37.513Z,8.90
2023-04-25T06:53:45.257Z,9.00
2023-04-25T06:57:01.318Z,9.10
2023-04-25T07:00:09.945Z,9.30
2023-04-25T07:03:15.394Z,9.40
2023-04-25T07:06:21.716Z,9.50
2023-04-25T07:09:27.602Z,9.60
2023-04-25T07:12:34.315Z,9.70
2023-04-25T07:15:38.098Z,9.80
2023-04-25T07:18:45.191Z,9.80
2023-04-25T07:21:48.895Z,9.90
2023-04-25T07:24:57.485Z,10.00
2023-04-25T07:28:03.564Z,10.10
2023-04-25T07:31:09.256Z,10.10
2023-04-25T07:34:12.958Z,10.20
2023-04-25T07:37:19.284Z,10.20
2023-04-25T07:40:38.779Z,10.20
2023-04-25T07:43:47.392Z,10.30
2023-04-25T07:46:51.425Z,10.40
2023-04-25T07:49:58.322Z,10.50
2023-04-25T07:53:02.173Z,10.60
2023-04-25T07:56:15.376Z,10.70
2023-04-25T07:59:22.161Z,10.90
2023-04-25T08:02:28.913Z,11.00
2023-04-25T08:05:33.153Z,11.20
2023-04-25T08:08:43.448Z,11.50
2023-04-25T08:11:52.419Z,11.50
2023-04-25T08:15:03.327Z,11.60
2023-04-25T08:18:11.300Z,11.70
2023-04-25T08:21:17.315Z,11.80
2023-04-25T08:24:21.768Z,11.80
2023-04-25T08:27:29.581Z,11.90
2023-04-25T08:30:34.259Z,12.00
2023-04-25T08:33:40.230Z,12.00
2023-04-25T08:36:57.660Z,12.10
2023-04-25T08:40:17.111Z,12.20
2023-04-25T08:43:47.329Z,12.20
2023-04-25T08:46:54.675Z,12.20
2023-04-25T08:50:05.920Z,12.20
2023-04-25T08:53:14.222Z,12.20
2023-04-25T08:56:18.569Z,12.10
2023-04-25T08:59:26.616Z,12.10
2023-04-25T09:02:30.617Z,11.80
2023-04-25T09:05:36.689Z,12.10
2023-04-25T09:08:41.058Z,12.20
2023-04-25T09:11:47.214Z,12.20
2023-04-25T09:15:08.478Z,12.20
2023-04-25T09:18:38.888Z,12.20
2023-04-25T09:21:42.902Z,12.20
2023-04-25T09:24:50.520Z,12.30
2023-04-25T09:27:56.451Z,12.20
2023-04-25T09:31:12.070Z,12.30
2023-04-25T09:34:22.972Z,12.20
2023-04-25T09:37:35.379Z,12.20
2023-04-25T09:40:57.794Z,12.10
2023-04-25T09:44:15.240Z,12.10
2023-04-25T09:47:23.992Z,12.00
2023-04-25T09:50:29.788Z,11.90
2023-04-25T09:53:43.554Z,11.80
2023-04-25T09:56:56.297Z,11.80
2023-04-25T10:00:04.687Z,11.80
2023-04-25T10:03:23.585Z,11.70
2023-04-25T10:06:43.827Z,11.80
2023-04-25T10:09:50.803Z,11.80
2023-04-25T10:12:54.851Z,11.90
2023-04-25T10:16:01.109Z,12.10
2023-04-25T10:19:07.070Z,12.20
2023-04-25T10:22:15.412Z,12.40
2023-04-25T10:25:19.423Z,12.60
2023-04-25T10:28:25.134Z,12.80
2023-04-25T10:31:29.211Z,13.00
2023-04-25T10:34:43.503Z,13.20
2023-04-25T10:38:00.091Z,13.40
2023-04-25T10:41:08.742Z,13.60
2023-04-25T10:44:12.402Z,13.80
2023-04-25T10:47:36.660Z,13.90
2023-04-25T10:50:42.319Z,13.90
2023-04-25T10:53:48.364Z,14.00
2023-04-25T10:56:53.754Z,14.00
2023-04-25T11:00:05.701Z,14.10
2023-04-25T11:03:09.714Z,14.20
2023-04-25T11:06:23.113Z,14.20
2023-04-25T11:09:27.197Z,14.30
2023-04-25T11:12:33.694Z,14.40
2023-04-25T11:15:37.418Z,14.50
2023-04-25T11:18:43.685Z,14.60
2023-04-25T11:21:49.313Z,14.60
2023-04-25T11:24:55.158Z,14.70
2023-04-25T11:28:01.062Z,14.90
2023-04-25T11:31:07.221Z,15.00
2023-04-25T11:34:10.929Z,15.20
2023-04-25T11:37:18.611Z,15.30
2023-04-25T11:40:22.331Z,15.40
2023-04-25T11:43:28.237Z,15.50
2023-04-25T11:46:31.997Z,15.60
2023-04-25T11:49:37.861Z,15.60
2023-04-25T11:52:44.172Z,15.40
2023-04-25T11:55:51.335Z,15.30
2023-04-25T11:59:03.252Z,15.10
2023-04-25T12:02:09.412Z,15.00
2023-04-25T12:05:30.512Z,14.80
2023-04-25T12:08:40.232Z,14.60
2023-04-25T12:11:44.402Z,14.40
2023-04-25T12:14:51.733Z,14.20
2023-04-25T12:17:56.459Z,14.00
2023-04-25T12:21:02.433Z,13.90
2023-04-25T12:24:14.978Z,13.80
2023-04-25T12:27:20.665Z,13.80
2023-04-25T12:30:24.353Z,13.70
2023-04-25T12:33:30.880Z,13.80
2023-04-25T12:36:34.565Z,13.90
2023-04-25T12:39:42.256Z,13.90
2023-04-25T12:42:46.066Z,14.00
2023-04-25T12:45:52.605Z,14.00
2023-04-25T12:49:02.738Z,14.10
2023-04-25T12:52:14.131Z,14.10
2023-04-25T12:55:19.863Z,14.10
2023-04-25T12:58:26.240Z,14.10
2023-04-25T13:01:29.994Z,14.10
2023-04-25T13:04:36.031Z,14.10
2023-04-25T13:07:39.847Z,14.10
2023-04-25T13:10:47.445Z,14.00
2023-04-25T13:13:51.221Z,14.00
2023-04-25T13:16:57.260Z,14.10
2023-04-25T13:20:01.024Z,14.00
2023-04-25T13:23:06.782Z,14.10
2023-04-25T13:26:12.502Z,14.10
2023-04-25T13:29:18.218Z,14.10
2023-04-25T13:32:21.998Z,14.00
2023-04-25T13:35:27.823Z,14.00
2023-04-25T13:38:31.634Z,14.00
2023-04-25T13:41:39.338Z,13.90
2023-04-25T13:44:43.186Z,13.90
2023-04-25T13:47:48.968Z,13.90
2023-04-25T13:50:52.705Z,13.80
2023-04-25T13:53:58.474Z,13.80
2023-04-25T13:57:04.218Z,13.70
2023-04-25T14:00:11.187Z,13.70
2023-04-25T14:03:15.042Z,13.70
2023-04-25T14:06:23.353Z,13.70
2023-04-25T14:09:27.882Z,13.80
2023-04-25T14:12:35.641Z,13.80
2023-04-25T14:15:39.499Z,13.90
2023-04-25T14:18:45.339Z,13.90
2023-04-25T14:21:49.064Z,13.90
2023-04-25T14:24:54.871Z,14.00
2023-04-25T14:28:00.706Z,13.90
2023-04-25T14:31:06.515Z,14.00
2023-04-25T14:34:11.076Z,13.90
2023-04-25T14:37:17.513Z,13.80
2023-04-25T14:40:23.529Z,13.70
2023-04-25T14:43:31.141Z,13.50
2023-04-25T14:46:34.953Z,13.30
2023-04-25T14:49:40.685Z,13.20
2023-04-25T14:52:45.505Z,13.00
2023-04-25T14:55:51.258Z,12.90
2023-04-25T14:58:57.181Z,12.80
2023-04-25T15:02:02.899Z,12.80
2023-04-25T15:05:08.980Z,12.70
2023-04-25T15:08:14.909Z,12.60
2023-04-25T15:11:18.652Z,12.50
2023-04-25T15:14:26.747Z,12.50
2023-04-25T15:17:31.558Z,12.40
2023-04-25T15:20:37.395Z,12.40
2023-04-25T15:23:41.056Z,12.30
2023-04-25T15:26:47.017Z,12.30
2023-04-25T15:29:53.515Z,12.20
2023-04-25T15:32:59.360Z,12.20
2023-04-25T15:36:03.761Z,12.20
2023-04-25T15:39:09.604Z,12.10
2023-04-25T15:42:13.422Z,12.10
2023-04-25T15:45:21.831Z,12.00
2023-04-25T15:48:25.533Z,12.00
2023-04-25T15:51:31.313Z,12.00
2023-04-25T15:54:35.088Z,12.00
2023-04-25T15:57:41.521Z,12.00
2023-04-25T16:00:48.463Z,12.00
2023-04-25T16:03:54.501Z,12.00
2023-04-25T16:07:01.037Z,11.90
2023-04-25T16:10:07.355Z,11.90
2023-04-25T16:13:11.072Z,11.90
2023-04-25T16:16:18.721Z,11.80
2023-04-25T16:19:22.466Z,11.80
2023-04-25T16:22:28.530Z,11.70
2023-04-25T16:25:32.226Z,11.70
2023-04-25T16:28:37.952Z,11.60
2023-04-25T16:31:44.004Z,11.70
2023-04-25T16:34:50.025Z,11.60
2023-04-25T16:37:53.796Z,11.50
2023-04-25T16:40:59.506Z,11.50
2023-04-25T16:44:03.251Z,11.50
2023-04-25T16:47:11.621Z,11.40
2023-04-25T16:50:17.758Z,11.40
2023-04-25T16:53:23.537Z,11.40
2023-04-25T16:56:27.368Z,11.40
2023-04-25T16:59:33.073Z,11.30
2023-04-25T17:02:38.789Z,11.20
2023-04-25T17:05:44.516Z,11.00
2023-04-25T17:08:48.265Z,10.90
2023-04-25T17:11:54.091Z,10.70
2023-04-25T17:14:59.707Z,10.70
2023-04-25T17:18:07.683Z,10.60
2023-04-25T17:21:11.513Z,10.60
2023-04-25T17:24:17.699Z,10.60
2023-04-25T17:27:21.391Z,10.50
2023-04-25T17:30:27.162Z,10.50
2023-04-25T17:33:32.808Z,10.50
2023-04-25T17:36:38.520Z,10.40
2023-04-25T17:39:42.210Z,10.40
2023-04-25T17:42:47.926Z,10.40
2023-04-25T17:45:51.841Z,10.40
2023-04-25T17:49:00.457Z,10.30
2023-04-25T17:52:04.210Z,10.30
2023-04-25T17:55:10.363Z,10.30
2023-04-25T17:58:14.466Z,10.30
2023-04-25T18:01:26.439Z,10.30
2023-04-25T18:04:32.353Z,10.20
2023-04-25T18:07:38.353Z,10.20
2023-04-25T18:10:42.119Z,10.20
2023-04-25T18:13:47.807Z,10.20
2023-04-25T18:16:52.112Z,10.10
2023-04-25T18:20:01.262Z,10.10
2023-04-25T18:23:05.127Z,10.10
2023-04-25T18:26:11.581Z,10.00
2023-04-25T18:29:29.032Z,10.10
2023-04-25T18:32:37.730Z,10.00
2023-04-25T18:35:55.264Z,10.00
2023-04-25T18:39:08.695Z,10.00
2023-04-25T18:42:22.977Z,10.00
2023-04-25T18:45:28.738Z,9.90
2023-04-25T18:48:32.604Z,9.90
2023-04-25T18:51:41.141Z,9.90
2023-04-25T18:54:45.264Z,9.90
2023-04-25T18:57:51.331Z,9.80
2023-04-25T19:00:55.154Z,9.80
2023-04-25T19:04:04.382Z,9.70
2023-04-25T19:07:12.278Z,9.70
2023-04-25T19:10:18.042Z,9.70
2023-04-25T19:13:21.894Z,9.60
2023-04-25T19:16:27.675Z,9.60
2023-04-25T19:19:31.963Z,9.50
2023-04-25T19:22:39.597Z,9.50
2023-04-25T19:25:43.327Z,9.50
2023-04-25T19:28:49.075Z,9.50
2023-04-25T19:31:52.768Z,9.40
2023-04-25T19:34:58.465Z,9.50
2023-04-25T19:38:04.167Z,9.40
2023-04-25T19:41:09.968Z,9.40
2023-04-25T19:44:13.960Z,9.40
2023-04-25T19:47:19.899Z,9.30
2023-04-25T19:50:23.744Z,9.30
2023-04-25T19:53:31.419Z,9.30
2023-04-25T19:56:35.241Z,9.20
2023-04-25T19:59:41.372Z,9.20
2023-04-25T20:02:45.666Z,9.10
2023-04-25T20:05:51.489Z,9.10
2023-04-25T20:08:57.129Z,9.10
2023-04-25T20:12:03.727Z,9.10
2023-04-25T20:15:08.225Z,9.10
2023-04-25T20:18:13.989Z,9.00
2023-04-25T20:21:18.328Z,9.00
2023-04-25T20:24:26.049Z,9.00
2023-04-25T20:27:30.193Z,8.90
2023-04-25T20:30:35.958Z,8.90
2023-04-25T20:33:39.859Z,8.80
2023-04-25T20:36:45.753Z,8.80
2023-04-25T20:39:51.641Z,8.80
2023-04-25T20:42:57.720Z,8.70
2023-04-25T20:46:01.700Z,8.70
2023-04-25T20:49:07.630Z,8.70
2023-04-25T20:52:11.905Z,8.70
2023-04-25T20:55:19.629Z,8.60
2023-04-25T20:58:23.270Z,8.60
2023-04-25T21:01:29.542Z,8.60
2023-04-25T21:04:33.535Z,8.50
2023-04-25T21:07:39.588Z,8.50
2023-04-25T21:10:45.147Z,8.40
2023-04-25T21:13:51.237Z,8.50
2023-04-25T21:16:55.145Z,8.50
2023-04-25T21:20:00.907Z,8.40
2023-04-25T21:23:04.588Z,8.40
2023-04-25T21:26:12.263Z,8.40
2023-04-25T21:29:15.912Z,8.30
2023-04-25T21:32:21.582Z,8.40
2023-04-25T21:35:25.309Z,8.30
2023-04-25T21:38:31.010Z,8.30
2023-04-25T21:41:37.007Z,8.30
2023-04-25T21:44:42.667Z,8.20
2023-04-25T21:47:47.179Z,8.20
2023-04-25T21:50:52.947Z,8.10
2023-04-25T21:53:58.349Z,8.10
2023-04-25T21:57:05.991Z,8.10
2023-04-25T22:00:20.393Z,8.00
2023-04-25T22:03:26.217Z,8.10
2023-04-25T22:06:30.547Z,8.00
2023-04-25T22:09:47.338Z,8.00
2023-04-25T22:12:53.734Z,7.90
2023-04-25T22:15:59.488Z,7.90
2023-04-25T22:19:05.515Z,7.90
2023-04-25T22:22:11.429Z,7.90
2023-04-25T22:25:17.192Z,7.80
2023-04-25T22:28:22.897Z,7.80
2023-04-25T22:31:28.688Z,7.80
2023-04-25T22:34:32.415Z,7.70
2023-04-25T22:37:38.221Z,7.80
2023-04-25T22:40:41.917Z,7.80
2023-04-25T22:43:49.511Z,7.70
2023-04-25T22:46:54.002Z,7.70
2023-04-25T22:50:00.679Z,7.60
2023-04-25T22:53:05.603Z,7.60
2023-04-25T22:56:11.560Z,7.60
2023-04-25T22:59:17.602Z,7.60
2023-04-25T23:02:24.399Z,7.50
2023-04-25T23:05:28.289Z,7.40
2023-04-25T23:08:34.735Z,7.40
2023-04-25T23:11:38.636Z,7.30
2023-04-25T23:14:46.207Z,7.30
2023-04-25T23:17:49.947Z,7.30
2023-04-25T23:20:55.707Z,7.30
2023-04-25T23:23:59.525Z,7.20
2023-04-25T23:27:05.257Z,7.10
2023-04-25T23:30:11.583Z,7.10
2023-04-25T23:33:17.268Z,7.00
2023-04-25T23:36:21.512Z,7.00
2023-04-25T23:39:27.321Z,6.90
2023-04-25T23:42:31.119Z,7.00
2023-04-25T23:45:39.605Z,6.90
2023-04-25T23:48:43.362Z,6.90
2023-04-25T23:51:49.045Z,6.80
2023-04-25T23:54:52.724Z,6.80
2023-04-25T23:57:58.569Z,6.70
